Time;durP1;ratioP1;P1;durP2;ratioP2;P2;SDS_P1;SDS_P2;PMS_P1;PMS_P2;Temp;Humidity;BMP_temperature;BMP_pressure;BME280_temperature;BME280_humidity;BME280_pressure;Samples;Min_cycle;Max_cycle;Signal;HPM_P1;HPM_P2
2023/08/14 00:01:16;;;;;;;2.90;1.90;;;20.80;99.00;;;;;;5052894;28;20028;-69
2023/08/14 00:03:42;;;;;;;4.85;2.17;;;20.80;99.10;;;;;;5051200;28;20021;-69
2023/08/14 00:06:07;;;;;;;6.35;2.22;;;20.80;99.40;;;;;;5052714;28;20474;-69
2023/08/14 00:08:33;;;;;;;4.00;1.65;;;20.80;99.20;;;;;;5052849;28;20117;-69
2023/08/14 00:10:58;;;;;;;3.88;1.80;;;20.80;99.20;;;;;;5052892;28;20021;-69
2023/08/14 00:13:24;;;;;;;4.60;2.10;;;20.70;99.20;;;;;;5063427;28;20020;-68
2023/08/14 00:15:50;;;;;;;5.07;2.00;;;20.70;99.30;;;;;;5070148;28;20032;-70
2023/08/14 00:18:16;;;;;;;4.72;1.88;;;20.70;99.30;;;;;;5072380;28;20498;-70
2023/08/14 00:20:42;;;;;;;4.05;1.63;;;20.70;99.40;;;;;;5070734;28;20129;-70
2023/08/14 00:23:08;;;;;;;3.63;1.60;;;20.70;99.40;;;;;;5071436;28;20108;-70
2023/08/14 00:25:33;;;;;;;5.50;1.50;;;20.70;99.50;;;;;;5072611;28;20116;-69
2023/08/14 00:27:59;;;;;;;4.70;1.80;;;20.60;99.50;;;;;;5072366;28;20074;-76
2023/08/14 00:30:25;;;;;;;3.88;1.83;;;20.60;99.50;;;;;;5072813;28;20520;-70
2023/08/14 00:32:50;;;;;;;3.58;2.08;;;20.60;99.60;;;;;;5072220;28;20078;-68
2023/08/14 00:35:16;;;;;;;3.13;1.83;;;20.60;99.60;;;;;;5072592;28;20064;-69
2023/08/14 00:37:47;;;;;;;1.95;1.52;;;20.50;99.60;;;;;;5072657;28;20044;-69
2023/08/14 00:40:14;;;;;;;5.20;2.17;;;20.50;99.70;;;;;;5072417;28;20119;-70
2023/08/14 00:42:42;;;;;;;3.85;1.80;;;20.50;99.70;;;;;;5072712;28;20389;-69
2023/08/14 00:45:09;;;;;;;5.47;2.10;;;20.50;99.80;;;;;;5075391;28;20155;-69
2023/08/14 00:47:35;;;;;;;3.65;1.92;;;20.50;99.70;;;;;;5076104;28;20383;-69
2023/08/14 00:50:06;;;;;;;6.13;1.77;;;20.50;99.60;;;;;;5073907;28;20032;-69
2023/08/14 00:52:34;;;;;;;3.20;1.95;;;20.50;99.70;;;;;;5040515;28;20028;-69
2023/08/14 00:55:02;;;;;;;4.50;1.80;;;20.40;99.80;;;;;;5075881;28;20040;-68
2023/08/14 00:57:29;;;;;;;5.53;1.50;;;20.40;99.90;;;;;;5076131;28;20024;-69
2023/08/14 00:59:56;;;;;;;2.50;1.38;;;20.40;99.90;;;;;;5075435;28;20055;-69
2023/08/14 01:02:24;;;;;;;4.57;1.27;;;20.40;99.90;;;;;;5075751;28;20476;-70
2023/08/14 01:04:49;;;;;;;3.65;1.40;;;20.40;99.90;;;;;;5063612;28;20040;-69
2023/08/14 01:07:15;;;;;;;3.30;1.70;;;20.30;99.90;;;;;;5061197;28;20366;-69
2023/08/14 01:09:41;;;;;;;3.60;1.50;;;20.30;99.90;;;;;;5074069;28;20036;-69
2023/08/14 01:12:24;;;;;;;3.20;1.90;;;20.30;99.90;;;;;;5075558;28;20016;-68
2023/08/14 01:14:57;;;;;;;2.55;1.20;;;20.30;99.90;;;;;;5075414;28;20020;-69
2023/08/14 01:17:26;;;;;;;4.78;1.67;;;20.30;99.90;;;;;;5075581;28;20025;-69
2023/08/14 01:19:55;;;;;;;3.65;1.55;;;20.20;99.90;;;;;;5075472;28;20115;-68
2023/08/14 01:22:45;;;;;;;3.00;1.70;;;20.30;99.90;;;;;;5075650;28;20048;-68
2023/08/14 01:25:31;;;;;;;2.72;1.50;;;20.30;99.90;;;;;;5075563;28;20031;-72
2023/08/14 01:27:58;;;;;;;3.38;1.45;;;20.30;99.90;;;;;;5076191;28;20055;-72
2023/08/14 01:30:23;;;;;;;4.20;1.48;;;20.20;99.90;;;;;;5076157;28;20020;-71
2023/08/14 01:32:50;;;;;;;2.53;1.45;;;20.20;99.90;;;;;;5076636;28;20081;-83
2023/08/14 01:35:17;;;;;;;4.40;1.33;;;20.20;99.90;;;;;;5075038;28;20036;-82
2023/08/14 01:38:01;;;;;;;3.42;1.40;;;20.10;99.90;;;;;;5067401;28;20108;-81
2023/08/14 01:40:47;;;;;;;4.18;1.95;;;20.20;99.90;;;;;;5060008;28;20043;-73
2023/08/14 01:43:24;;;;;;;2.97;1.58;;;20.20;99.90;;;;;;5074825;28;20028;-71
2023/08/14 01:45:51;;;;;;;3.75;1.60;;;20.10;99.90;;;;;;5074990;28;20048;-69
2023/08/14 01:48:18;;;;;;;2.17;1.30;;;20.10;99.90;;;;;;5074851;28;20028;-74
2023/08/14 01:50:45;;;;;;;2.83;1.35;;;20.10;99.90;;;;;;5074932;28;20031;-70
2023/08/14 01:53:11;;;;;;;3.72;1.10;;;20.00;99.90;;;;;;5074727;28;20027;-71
2023/08/14 01:55:37;;;;;;;2.50;1.27;;;20.00;99.90;;;;;;5073970;28;20111;-69
2023/08/14 01:58:02;;;;;;;3.58;1.20;;;20.00;99.90;;;;;;5074393;28;20025;-71
2023/08/14 02:00:31;;;;;;;2.33;1.27;;;20.00;99.90;;;;;;5073182;28;20032;-70
2023/08/14 02:02:57;;;;;;;2.38;1.50;;;20.00;99.90;;;;;;5074584;28;20519;-74
2023/08/14 02:05:22;;;;;;;4.55;1.17;;;20.00;99.90;;;;;;5074535;28;20025;-70
2023/08/14 02:07:48;;;;;;;4.18;1.58;;;20.00;99.90;;;;;;5067010;28;20025;-73
2023/08/14 02:10:14;;;;;;;2.97;1.27;;;19.90;99.90;;;;;;5054221;28;20029;-75
2023/08/14 02:12:39;;;;;;;2.80;1.13;;;19.90;99.90;;;;;;5054231;28;20052;-69
2023/08/14 02:15:05;;;;;;;2.42;1.30;;;19.90;99.90;;;;;;5054176;28;20374;-73
2023/08/14 02:17:31;;;;;;;3.50;1.08;;;19.90;99.90;;;;;;5054435;28;20064;-69
2023/08/14 02:19:57;;;;;;;4.20;1.58;;;19.90;99.90;;;;;;5054381;28;20067;-69
2023/08/14 02:22:22;;;;;;;2.45;1.60;;;19.90;99.90;;;;;;5054151;28;20527;-69
2023/08/14 02:24:48;;;;;;;3.55;1.40;;;19.90;99.90;;;;;;5054245;28;20025;-70
2023/08/14 02:27:13;;;;;;;3.95;1.50;;;19.90;99.90;;;;;;5053962;28;20032;-73
2023/08/14 02:29:39;;;;;;;2.95;1.20;;;19.80;99.90;;;;;;5052965;28;20110;-70
2023/08/14 02:32:05;;;;;;;6.35;1.58;;;19.80;99.90;;;;;;5053919;28;20108;-71
2023/08/14 02:34:47;;;;;;;4.28;1.73;;;19.80;99.90;;;;;;5054170;28;20062;-69
2023/08/14 02:37:14;;;;;;;2.22;1.25;;;19.80;99.90;;;;;;5059155;28;20031;-75
2023/08/14 02:39:40;;;;;;;3.42;1.70;;;19.80;99.90;;;;;;5067604;28;20482;-72
2023/08/14 02:42:06;;;;;;;4.88;1.52;;;19.80;99.90;;;;;;5053489;28;20021;-69
2023/08/14 02:44:32;;;;;;;3.28;1.88;;;19.80;99.90;;;;;;5053998;28;20024;-70
2023/08/14 02:46:58;;;;;;;4.43;2.08;;;19.70;99.90;;;;;;5053849;28;20020;-72
2023/08/14 02:49:24;;;;;;;3.83;1.58;;;19.70;99.90;;;;;;5053621;28;20029;-69
2023/08/14 02:51:50;;;;;;;7.60;1.98;;;19.70;99.90;;;;;;5053813;28;20017;-76
2023/08/14 02:54:16;;;;;;;5.53;1.73;;;19.70;99.90;;;;;;5053702;28;20048;-71
2023/08/14 02:56:42;;;;;;;3.90;1.85;;;19.70;99.90;;;;;;5053320;28;20059;-69
2023/08/14 02:59:07;;;;;;;4.40;1.60;;;19.70;99.90;;;;;;5068952;28;20493;-69
2023/08/14 03:01:34;;;;;;;3.72;1.60;;;19.60;99.90;;;;;;5053290;28;20048;-76
2023/08/14 03:04:00;;;;;;;3.25;1.65;;;19.70;99.90;;;;;;5053547;28;20083;-69
2023/08/14 03:06:29;;;;;;;3.08;1.80;;;19.60;99.90;;;;;;5065745;28;20506;-69
2023/08/14 03:08:55;;;;;;;2.25;1.40;;;19.60;99.90;;;;;;5073108;28;20028;-69
2023/08/14 03:11:21;;;;;;;3.60;1.50;;;19.60;99.90;;;;;;5071478;28;20031;-69
2023/08/14 03:13:46;;;;;;;3.80;1.45;;;19.50;99.90;;;;;;5053340;28;20063;-68
2023/08/14 03:16:12;;;;;;;4.30;1.70;;;19.50;99.90;;;;;;5051583;28;20028;-72
2023/08/14 03:18:38;;;;;;;4.40;1.60;;;19.50;99.90;;;;;;5053228;28;20037;-70
2023/08/14 03:21:04;;;;;;;4.50;1.70;;;19.50;99.90;;;;;;5053196;28;20508;-70
2023/08/14 03:23:29;;;;;;;3.97;1.65;;;19.50;99.90;;;;;;5053209;28;20025;-69
2023/08/14 03:25:55;;;;;;;4.18;1.55;;;19.50;99.90;;;;;;5053055;28;20382;-72
2023/08/14 03:28:21;;;;;;;4.80;1.77;;;19.50;99.90;;;;;;5053437;28;20088;-71
2023/08/14 03:30:48;;;;;;;3.40;1.85;;;19.50;99.90;;;;;;5053215;28;20029;-74
2023/08/14 03:33:14;;;;;;;2.90;1.55;;;19.60;99.90;;;;;;5051743;28;20031;-69
2023/08/14 03:35:40;;;;;;;3.97;2.03;;;19.50;99.90;;;;;;5057241;28;20035;-72
2023/08/14 03:38:05;;;;;;;4.38;1.50;;;19.50;99.90;;;;;;5072802;28;20028;-71
2023/08/14 03:40:31;;;;;;;4.30;1.73;;;19.50;99.90;;;;;;5068056;28;20049;-75
2023/08/14 03:42:56;;;;;;;4.72;1.83;;;19.40;99.90;;;;;;5046886;28;20029;-68
2023/08/14 03:45:22;;;;;;;5.70;1.70;;;19.50;99.90;;;;;;5049894;28;20032;-77
2023/08/14 03:47:48;;;;;;;3.55;1.75;;;19.40;99.90;;;;;;5050322;28;20466;-69
2023/08/14 03:50:13;;;;;;;3.38;1.52;;;19.40;99.90;;;;;;5051316;28;20021;-69
2023/08/14 03:52:39;;;;;;;2.75;1.45;;;19.40;99.90;;;;;;5052907;28;20021;-71
2023/08/14 03:55:05;;;;;;;3.13;1.75;;;19.40;99.90;;;;;;5052717;28;20031;-69
2023/08/14 03:57:30;;;;;;;4.65;1.63;;;19.40;99.90;;;;;;5052512;28;20025;-69
2023/08/14 03:59:56;;;;;;;6.10;1.98;;;19.40;99.90;;;;;;5052718;28;20037;-69
2023/08/14 04:02:21;;;;;;;4.20;2.10;;;19.40;99.90;;;;;;5052758;28;20104;-74
2023/08/14 04:04:47;;;;;;;4.97;2.10;;;19.40;99.90;;;;;;5051706;28;20075;-69
2023/08/14 04:07:13;;;;;;;2.50;1.90;;;19.40;99.90;;;;;;5068408;28;20029;-74
2023/08/14 04:09:38;;;;;;;3.75;1.92;;;19.30;99.90;;;;;;5071938;28;20116;-69
2023/08/14 04:12:04;;;;;;;4.00;1.80;;;19.40;99.90;;;;;;5073078;28;20016;-72
2023/08/14 04:14:32;;;;;;;4.55;2.45;;;19.40;99.90;;;;;;5072775;28;20489;-74
2023/08/14 04:16:58;;;;;;;5.40;2.58;;;19.30;99.90;;;;;;5072865;28;20021;-69
2023/08/14 04:19:24;;;;;;;3.15;2.08;;;19.30;99.90;;;;;;5074756;28;20044;-70
2023/08/14 04:21:49;;;;;;;8.52;2.70;;;19.30;99.90;;;;;;5076634;28;20027;-70
2023/08/14 04:24:15;;;;;;;4.20;2.55;;;19.30;99.90;;;;;;5076079;28;20111;-73
2023/08/14 04:26:41;;;;;;;3.95;2.85;;;19.30;99.90;;;;;;5076411;28;20036;-69
2023/08/14 04:29:08;;;;;;;5.55;2.67;;;19.30;99.90;;;;;;5076393;28;20409;-69
2023/08/14 04:31:34;;;;;;;6.35;2.38;;;19.30;99.90;;;;;;5058491;28;20025;-69
2023/08/14 04:34:01;;;;;;;5.90;2.45;;;19.20;99.90;;;;;;5050965;28;20532;-68
2023/08/14 04:36:26;;;;;;;5.70;2.67;;;19.30;99.90;;;;;;5059161;28;20028;-70
2023/08/14 04:38:52;;;;;;;6.68;2.90;;;19.20;99.90;;;;;;5054231;28;20445;-71
2023/08/14 04:41:17;;;;;;;7.68;2.75;;;19.30;99.90;;;;;;5056088;28;20033;-71
2023/08/14 04:43:43;;;;;;;7.45;2.38;;;19.20;99.90;;;;;;5056182;28;20045;-69
2023/08/14 04:46:10;;;;;;;3.50;2.13;;;19.20;99.90;;;;;;5058054;28;20385;-70
2023/08/14 04:48:37;;;;;;;3.95;2.15;;;19.20;99.90;;;;;;5067478;28;20082;-69
2023/08/14 04:51:03;;;;;;;5.82;2.20;;;19.20;99.90;;;;;;5057185;28;20013;-69
2023/08/14 04:53:28;;;;;;;6.68;2.35;;;19.30;99.90;;;;;;5055589;28;20029;-69
2023/08/14 04:55:54;;;;;;;4.35;1.63;;;19.30;99.90;;;;;;5056202;28;20107;-69
2023/08/14 04:58:19;;;;;;;4.15;2.10;;;19.30;99.90;;;;;;5054458;28;20036;-69
2023/08/14 05:00:45;;;;;;;7.30;2.33;;;19.30;99.90;;;;;;5061511;28;20041;-73
2023/08/14 05:03:11;;;;;;;4.03;1.80;;;19.30;99.90;;;;;;5052009;28;20087;-70
2023/08/14 05:05:36;;;;;;;5.07;1.90;;;19.20;99.90;;;;;;5054862;28;20058;-70
2023/08/14 05:08:02;;;;;;;4.95;2.38;;;19.30;99.90;;;;;;5055173;28;20466;-70
2023/08/14 05:10:27;;;;;;;7.35;2.28;;;19.30;99.90;;;;;;5055434;28;20146;-70
2023/08/14 05:12:55;;;;;;;5.22;1.92;;;19.20;99.90;;;;;;5055531;28;20025;-69
2023/08/14 05:15:21;;;;;;;4.18;1.60;;;19.30;99.90;;;;;;5054144;28;20024;-70
2023/08/14 05:17:46;;;;;;;6.32;2.28;;;19.20;99.90;;;;;;5055600;28;20462;-70
2023/08/14 05:20:12;;;;;;;5.03;1.60;;;19.30;99.90;;;;;;5055377;28;20107;-70
2023/08/14 05:22:38;;;;;;;5.05;1.73;;;19.20;99.90;;;;;;5055225;28;20029;-70
2023/08/14 05:25:05;;;;;;;4.20;1.67;;;19.20;99.90;;;;;;5055721;28;20025;-70
2023/08/14 05:27:36;;;;;;;4.38;1.48;;;19.30;99.90;;;;;;5055283;28;20421;-69
2023/08/14 05:30:03;;;;;;;5.47;1.50;;;19.30;99.90;;;;;;5052803;28;20166;-69
2023/08/14 05:32:29;;;;;;;5.28;1.60;;;19.30;99.90;;;;;;5055321;28;20489;-71
2023/08/14 05:34:54;;;;;;;6.25;1.65;;;19.30;99.90;;;;;;5053599;28;20021;-70
2023/08/14 05:37:20;;;;;;;5.45;1.88;;;19.30;99.90;;;;;;5054901;28;20028;-70
2023/08/14 05:39:46;;;;;;;4.40;1.95;;;19.30;99.90;;;;;;5054731;28;20087;-70
2023/08/14 05:42:11;;;;;;;5.70;1.70;;;19.30;99.90;;;;;;5055088;28;20029;-71
2023/08/14 05:44:37;;;;;;;2.72;1.60;;;19.40;99.90;;;;;;5053591;28;20075;-74
2023/08/14 05:47:03;;;;;;;4.40;1.70;;;19.30;99.90;;;;;;5054947;28;20024;-71
2023/08/14 05:49:28;;;;;;;5.88;1.77;;;19.30;99.90;;;;;;5054634;28;20033;-70
2023/08/14 05:51:54;;;;;;;5.03;1.98;;;19.30;99.90;;;;;;5054694;28;20459;-70
2023/08/14 05:54:19;;;;;;;3.92;1.80;;;19.20;99.90;;;;;;5053658;28;20180;-70
2023/08/14 05:56:46;;;;;;;4.22;2.03;;;19.20;99.90;;;;;;5054719;28;20025;-70
2023/08/14 05:59:11;;;;;;;4.70;2.00;;;19.20;99.90;;;;;;5054656;28;20032;-70
2023/08/14 06:01:37;;;;;;;4.57;1.83;;;19.20;99.90;;;;;;5054523;28;20025;-70
2023/08/14 06:04:03;;;;;;;4.97;1.77;;;19.20;99.90;;;;;;5054642;28;20014;-70
2023/08/14 06:06:28;;;;;;;2.55;1.42;;;19.20;99.90;;;;;;5054694;28;20371;-70
2023/08/14 06:08:54;;;;;;;4.00;1.98;;;19.20;99.90;;;;;;5054620;28;20021;-70
2023/08/14 06:11:19;;;;;;;5.28;2.28;;;19.20;99.90;;;;;;5054340;28;20032;-70
2023/08/14 06:13:45;;;;;;;7.30;2.20;;;19.20;99.90;;;;;;5054483;28;20025;-70
2023/08/14 06:16:12;;;;;;;10.48;3.03;;;19.20;99.90;;;;;;5054507;28;20040;-70
2023/08/14 06:18:37;;;;;;;5.75;2.42;;;19.20;99.90;;;;;;5052852;28;20075;-70
2023/08/14 06:21:03;;;;;;;5.60;2.50;;;19.20;99.90;;;;;;5054170;28;20478;-70
2023/08/14 06:23:28;;;;;;;4.93;2.60;;;19.30;99.90;;;;;;5054263;28;20104;-70
2023/08/14 06:25:54;;;;;;;4.47;2.75;;;19.30;99.90;;;;;;5054320;28;20021;-70
2023/08/14 06:28:20;;;;;;;9.10;3.15;;;19.30;99.90;;;;;;5054139;28;20029;-71
2023/08/14 06:30:45;;;;;;;4.15;2.90;;;19.20;99.90;;;;;;5053941;28;20120;-75
2023/08/14 06:33:11;;;;;;;8.20;2.63;;;19.20;99.90;;;;;;5053922;28;20064;-71
2023/08/14 06:35:36;;;;;;;5.15;2.88;;;19.30;99.90;;;;;;5053924;28;20025;-71
2023/08/14 06:38:02;;;;;;;4.43;2.33;;;19.20;99.90;;;;;;5054068;28;20021;-73
2023/08/14 06:40:28;;;;;;;3.72;2.30;;;19.20;99.90;;;;;;5053884;28;20490;-70
2023/08/14 06:42:54;;;;;;;6.85;3.20;;;19.20;99.90;;;;;;5053392;28;20458;-70
2023/08/14 06:45:21;;;;;;;4.43;2.72;;;19.20;99.90;;;;;;5052760;28;20398;-70
2023/08/14 06:47:47;;;;;;;6.70;2.78;;;19.20;99.90;;;;;;5053276;28;20489;-71
2023/08/14 06:50:13;;;;;;;5.43;2.78;;;19.30;99.90;;;;;;5053867;28;20052;-70
2023/08/14 06:52:39;;;;;;;3.83;2.50;;;19.30;99.90;;;;;;5053657;28;20028;-72
2023/08/14 06:55:05;;;;;;;5.45;2.47;;;19.40;99.90;;;;;;5053745;28;20029;-72
2023/08/14 06:57:31;;;;;;;6.15;2.15;;;19.50;99.90;;;;;;5053408;28;20028;-72
2023/08/14 06:59:56;;;;;;;4.80;2.28;;;19.60;99.90;;;;;;5053561;28;20394;-70
2023/08/14 07:02:22;;;;;;;8.10;2.67;;;19.60;99.90;;;;;;5053378;28;20515;-70
2023/08/14 07:04:48;;;;;;;6.80;2.20;;;19.70;99.90;;;;;;5053510;28;20029;-71
2023/08/14 07:07:13;;;;;;;4.75;1.48;;;19.80;99.90;;;;;;5053409;28;20020;-72
2023/08/14 07:09:39;;;;;;;7.72;2.25;;;19.90;99.90;;;;;;5053572;28;20029;-70
2023/08/14 07:12:05;;;;;;;5.47;2.10;;;19.90;99.90;;;;;;5053397;28;20075;-71
2023/08/14 07:14:31;;;;;;;3.00;1.63;;;20.00;99.90;;;;;;5052293;28;20028;-70
2023/08/14 07:16:57;;;;;;;7.55;2.58;;;20.10;99.90;;;;;;5052833;28;20103;-71
2023/08/14 07:19:23;;;;;;;6.30;1.90;;;20.20;99.90;;;;;;5053407;28;20438;-70
2023/08/14 07:21:48;;;;;;;5.38;2.30;;;20.10;99.90;;;;;;5053179;28;20017;-71
2023/08/14 07:24:14;;;;;;;5.38;1.67;;;20.10;99.90;;;;;;5053376;28;20025;-70
2023/08/14 07:26:41;;;;;;;3.78;1.75;;;20.20;99.90;;;;;;5053138;28;20032;-70
2023/08/14 07:29:07;;;;;;;6.28;2.10;;;20.20;99.90;;;;;;5053108;28;20024;-70
2023/08/14 07:31:32;;;;;;;8.00;2.42;;;20.30;99.90;;;;;;5052715;28;20108;-71
2023/08/14 07:33:58;;;;;;;5.20;1.80;;;20.40;99.90;;;;;;5053055;28;20044;-71
2023/08/14 07:36:24;;;;;;;5.53;1.58;;;20.40;99.90;;;;;;5053310;28;20090;-70
2023/08/14 07:38:49;;;;;;;5.28;2.13;;;20.40;99.90;;;;;;5053001;28;20462;-71
2023/08/14 07:41:15;;;;;;;5.63;2.00;;;20.60;99.90;;;;;;5051634;28;20067;-71
2023/08/14 07:43:41;;;;;;;4.85;1.45;;;20.60;99.90;;;;;;5051619;28;20017;-71
2023/08/14 07:46:07;;;;;;;4.90;1.92;;;20.70;99.90;;;;;;5051428;28;20463;-71
2023/08/14 07:48:33;;;;;;;5.50;1.55;;;20.70;99.90;;;;;;5052881;28;20040;-71
2023/08/14 07:50:59;;;;;;;7.47;1.85;;;20.80;99.90;;;;;;5052752;28;20029;-70
2023/08/14 07:53:24;;;;;;;3.22;1.25;;;20.90;99.90;;;;;;5053483;28;20067;-71
2023/08/14 07:55:50;;;;;;;6.47;1.83;;;20.90;99.90;;;;;;5057087;28;20059;-72
2023/08/14 07:58:17;;;;;;;5.05;2.00;;;20.90;99.90;;;;;;5056758;28;20017;-71
2023/08/14 08:00:43;;;;;;;6.47;2.20;;;21.10;99.90;;;;;;5055251;28;20507;-72
2023/08/14 08:03:08;;;;;;;4.88;1.20;;;21.10;99.90;;;;;;5056793;28;20159;-70
2023/08/14 08:05:34;;;;;;;3.38;1.40;;;21.20;99.90;;;;;;5056868;28;20025;-71
2023/08/14 08:08:01;;;;;;;4.20;1.63;;;21.30;99.90;;;;;;5056752;28;20524;-71
2023/08/14 08:10:27;;;;;;;4.15;1.75;;;21.30;99.90;;;;;;5056804;28;20155;-70
2023/08/14 08:12:52;;;;;;;4.60;1.58;;;21.40;99.90;;;;;;5056673;28;20554;-70
2023/08/14 08:15:18;;;;;;;4.85;1.50;;;21.40;99.90;;;;;;5056450;28;20024;-71
2023/08/14 08:17:43;;;;;;;6.57;1.90;;;21.50;99.90;;;;;;5056676;28;20025;-71
2023/08/14 08:20:10;;;;;;;5.70;1.73;;;21.60;99.90;;;;;;5056818;28;20078;-70
2023/08/14 08:22:35;;;;;;;3.72;0.90;;;21.60;99.90;;;;;;5056612;28;20025;-73
2023/08/14 08:25:01;;;;;;;5.63;1.25;;;21.70;99.90;;;;;;5056473;28;20037;-69
2023/08/14 08:27:26;;;;;;;6.18;2.20;;;21.70;99.90;;;;;;5056588;28;20378;-70
2023/08/14 08:29:52;;;;;;;3.15;0.90;;;21.70;99.90;;;;;;5055970;28;20025;-70
2023/08/14 08:32:18;;;;;;;3.42;1.20;;;21.80;99.90;;;;;;5056478;28;20021;-70
2023/08/14 08:34:43;;;;;;;2.40;1.23;;;21.90;99.90;;;;;;5054895;28;20025;-71
2023/08/14 08:37:09;;;;;;;3.17;1.10;;;22.10;99.60;;;;;;5056354;28;20079;-70
2023/08/14 08:39:34;;;;;;;4.43;1.30;;;22.00;99.60;;;;;;5056021;28;20114;-70
2023/08/14 08:42:02;;;;;;;5.05;1.35;;;22.10;99.60;;;;;;5056130;28;20021;-70
2023/08/14 08:44:36;;;;;;;2.40;0.90;;;22.10;99.90;;;;;;5055725;28;20044;-73
2023/08/14 08:47:09;;;;;;;4.82;2.15;;;22.10;99.50;;;;;;5056081;28;20029;-70
2023/08/14 08:49:36;;;;;;;2.83;1.35;;;22.20;99.90;;;;;;5055694;28;20029;-71
2023/08/14 08:52:05;;;;;;;4.07;1.00;;;22.20;99.90;;;;;;5056121;28;20025;-72
2023/08/14 08:54:31;;;;;;;5.30;1.42;;;22.20;99.60;;;;;;5055895;28;20036;-72
2023/08/14 08:56:57;;;;;;;4.32;1.50;;;22.20;99.50;;;;;;5055696;28;20106;-71
2023/08/14 08:59:23;;;;;;;3.38;1.08;;;22.30;99.50;;;;;;5055217;28;20057;-71
2023/08/14 09:01:49;;;;;;;5.70;1.00;;;22.40;99.40;;;;;;5054664;28;20060;-70
2023/08/14 09:04:15;;;;;;;3.08;1.15;;;22.40;99.10;;;;;;5055477;28;20021;-70
2023/08/14 09:06:41;;;;;;;3.10;1.10;;;22.50;99.10;;;;;;5055880;28;20036;-70
2023/08/14 09:09:09;;;;;;;4.57;1.25;;;22.50;98.70;;;;;;5055593;28;20025;-71
2023/08/14 09:11:34;;;;;;;6.28;1.58;;;22.50;98.70;;;;;;5055547;28;20116;-72
2023/08/14 09:14:00;;;;;;;4.63;1.00;;;22.50;98.30;;;;;;5055192;28;20049;-72
2023/08/14 09:16:27;;;;;;;3.42;1.30;;;22.60;98.50;;;;;;5055627;28;20112;-76
2023/08/14 09:18:57;;;;;;;4.90;1.40;;;22.60;98.20;;;;;;5055555;28;20044;-74
2023/08/14 09:21:24;;;;;;;3.28;1.20;;;22.70;98.70;;;;;;5055372;28;20389;-71
2023/08/14 09:23:50;;;;;;;6.00;1.52;;;22.60;98.50;;;;;;5055237;28;20021;-70
2023/08/14 09:26:15;;;;;;;9.10;1.40;;;22.60;98.40;;;;;;5055071;28;20025;-71
2023/08/14 09:28:41;;;;;;;4.22;1.45;;;22.60;98.30;;;;;;5055043;28;20056;-77
2023/08/14 09:31:09;;;;;;;5.15;1.00;;;22.70;98.20;;;;;;5055242;28;20013;-71
2023/08/14 09:33:36;;;;;;;5.60;1.20;;;22.70;98.20;;;;;;5055320;28;20470;-70
2023/08/14 09:36:02;;;;;;;5.10;1.65;;;22.70;96.20;;;;;;5055078;28;20025;-74
2023/08/14 09:38:28;;;;;;;5.45;1.23;;;22.80;97.30;;;;;;5055208;28;20087;-70
2023/08/14 09:41:01;;;;;;;5.40;1.00;;;22.80;97.60;;;;;;5054818;28;20497;-70
2023/08/14 09:43:29;;;;;;;3.92;1.35;;;22.80;97.00;;;;;;5054922;28;20036;-73
2023/08/14 09:46:01;;;;;;;3.83;1.27;;;22.70;97.80;;;;;;5054955;28;20035;-77
2023/08/14 09:48:44;;;;;;;6.25;1.40;;;22.70;97.80;;;;;;5054904;28;20029;-75
2023/08/14 09:51:11;;;;;;;4.82;1.02;;;22.60;97.70;;;;;;5054652;28;20028;-74
2023/08/14 09:53:52;;;;;;;3.28;1.13;;;22.70;97.50;;;;;;5054993;28;20020;-70
2023/08/14 09:56:19;;;;;;;3.42;1.20;;;22.70;97.30;;;;;;5054359;28;20359;-69
2023/08/14 09:58:48;;;;;;;5.22;1.58;;;22.80;97.20;;;;;;5054803;28;20021;-69
2023/08/14 10:01:16;;;;;;;4.70;1.23;;;22.80;97.00;;;;;;5054396;28;20071;-70
2023/08/14 10:03:42;;;;;;;6.97;1.40;;;22.80;96.90;;;;;;5054799;28;20021;-70
2023/08/14 10:06:10;;;;;;;4.75;1.05;;;22.70;96.50;;;;;;5054481;28;20516;-72
2023/08/14 10:08:38;;;;;;;4.07;1.23;;;22.80;96.50;;;;;;5054533;28;20028;-70
2023/08/14 10:11:05;;;;;;;6.30;1.38;;;22.80;96.50;;;;;;5052736;28;20021;-70
2023/08/14 10:13:35;;;;;;;5.15;1.58;;;22.70;96.40;;;;;;5054673;28;20600;-72
2023/08/14 10:16:03;;;;;;;5.57;1.23;;;22.80;96.10;;;;;;5053652;28;20025;-70
2023/08/14 10:18:29;;;;;;;2.97;0.93;;;22.80;96.30;;;;;;5054453;28;20021;-70
2023/08/14 10:20:58;;;;;;;4.57;1.40;;;22.80;96.20;;;;;;5054066;28;20033;-70
2023/08/14 10:23:25;;;;;;;3.80;1.23;;;22.80;96.10;;;;;;5054451;28;20116;-75
2023/08/14 10:25:51;;;;;;;3.78;1.10;;;22.90;96.00;;;;;;5054017;28;20017;-71
2023/08/14 10:28:19;;;;;;;3.50;1.15;;;22.90;95.90;;;;;;5054282;28;20030;-73
2023/08/14 10:30:45;;;;;;;4.38;1.50;;;22.90;95.90;;;;;;5053878;28;20025;-71
2023/08/14 10:33:13;;;;;;;3.78;1.65;;;22.90;95.80;;;;;;5054120;28;20470;-73
2023/08/14 10:35:53;;;;;;;2.78;1.20;;;22.90;95.80;;;;;;5054013;28;20600;-71
2023/08/14 10:38:20;;;;;;;6.20;1.40;;;22.90;95.90;;;;;;5054216;28;20097;-71
2023/08/14 10:41:04;;;;;;;3.30;1.20;;;22.90;95.90;;;;;;5053566;28;20029;-71
2023/08/14 10:43:30;;;;;;;3.45;1.35;;;22.90;95.80;;;;;;5054054;28;20025;-71
2023/08/14 10:45:56;;;;;;;4.03;1.48;;;22.90;95.70;;;;;;5052496;28;20074;-70
2023/08/14 10:48:22;;;;;;;6.05;1.60;;;22.90;95.80;;;;;;5052535;28;20033;-70
2023/08/14 10:50:59;;;;;;;4.00;1.42;;;22.90;95.70;;;;;;5052763;28;20029;-70
2023/08/14 10:53:25;;;;;;;4.28;1.45;;;23.00;95.60;;;;;;5052657;28;20028;-73
2023/08/14 10:55:52;;;;;;;5.50;1.58;;;23.00;95.90;;;;;;5053468;28;20108;-70
2023/08/14 10:58:35;;;;;;;4.05;1.10;;;23.00;95.50;;;;;;5053715;28;20095;-71
2023/08/14 11:01:03;;;;;;;6.55;1.42;;;23.00;95.50;;;;;;5053682;28;20037;-70
2023/08/14 11:03:30;;;;;;;7.32;2.42;;;23.10;95.60;;;;;;5053510;28;20485;-70
2023/08/14 11:05:56;;;;;;;5.07;1.50;;;23.10;94.90;;;;;;5053747;28;20040;-71
2023/08/14 11:08:23;;;;;;;3.58;1.60;;;23.10;95.40;;;;;;5053247;28;20051;-70
2023/08/14 11:10:49;;;;;;;5.38;1.75;;;23.10;95.40;;;;;;5053194;28;20090;-79
2023/08/14 11:13:16;;;;;;;4.38;1.13;;;23.10;95.40;;;;;;5052120;28;20013;-79
2023/08/14 11:15:43;;;;;;;4.00;1.10;;;23.20;95.20;;;;;;5053698;28;20024;-80
2023/08/14 11:18:09;;;;;;;4.68;1.60;;;23.20;95.40;;;;;;5053146;28;20108;-79
2023/08/14 11:20:42;;;;;;;5.03;1.38;;;23.20;95.40;;;;;;5051981;28;20033;-79
2023/08/14 11:23:07;;;;;;;;;;;23.20;95.50;;;;;;5053439;28;20017;-79
2023/08/14 11:25:34;;;;;;;4.35;1.08;;;23.20;95.40;;;;;;5053384;28;19951;-70
2023/08/14 11:28:00;;;;;;;8.40;1.75;;;23.20;95.50;;;;;;5050252;28;20079;-70
2023/08/14 11:30:30;;;;;;;4.78;1.35;;;23.30;94.90;;;;;;5041728;28;20028;-69
2023/08/14 11:32:56;;;;;;;4.07;1.73;;;23.30;95.20;;;;;;5047790;28;20029;-70
2023/08/14 11:35:22;;;;;;;6.88;1.63;;;23.30;95.10;;;;;;5053055;28;20043;-72
2023/08/14 11:37:47;;;;;;;4.53;1.35;;;23.40;95.20;;;;;;5052428;28;20454;-75
2023/08/14 11:40:17;;;;;;;4.68;1.30;;;23.30;95.30;;;;;;5052965;28;20359;-75
2023/08/14 11:42:43;;;;;;;4.72;1.10;;;23.30;95.30;;;;;;5052888;28;20085;-70
2023/08/14 11:45:10;;;;;;;5.47;1.63;;;23.30;95.40;;;;;;5051407;28;20052;-70
2023/08/14 11:47:40;;;;;;;5.53;1.48;;;23.40;95.10;;;;;;5053431;28;20029;-71
2023/08/14 11:50:08;;;;;;;6.50;1.42;;;23.50;95.20;;;;;;5052184;28;20090;-70
2023/08/14 11:52:35;;;;;;;4.75;1.50;;;23.40;95.20;;;;;;5052576;28;20036;-73
2023/08/14 11:55:02;;;;;;;4.70;1.52;;;23.30;95.50;;;;;;5051823;28;20029;-78
2023/08/14 11:57:30;;;;;;;4.10;1.42;;;23.40;95.30;;;;;;5052012;28;20018;-80
2023/08/14 11:59:57;;;;;;;4.60;1.20;;;23.40;95.20;;;;;;5050936;28;20037;-71
2023/08/14 12:02:24;;;;;;;5.72;1.38;;;23.40;95.30;;;;;;5054596;28;20036;-76
2023/08/14 12:05:00;;;;;;;7.45;1.80;;;23.50;95.20;;;;;;5072090;28;20037;-71
2023/08/14 12:07:27;;;;;;;8.68;2.15;;;23.50;95.10;;;;;;5072021;28;20056;-71
2023/08/14 12:09:56;;;;;;;5.90;1.70;;;23.40;94.90;;;;;;5072766;28;20500;-70
2023/08/14 12:12:22;;;;;;;4.28;1.38;;;23.50;94.90;;;;;;5072799;28;20104;-73
2023/08/14 12:14:50;;;;;;;4.05;1.50;;;23.50;95.00;;;;;;5069076;28;20079;-71
2023/08/14 12:17:18;;;;;;;3.15;1.20;;;23.60;95.00;;;;;;5047744;28;20022;-72
2023/08/14 12:19:57;;;;;;;4.07;1.30;;;23.60;94.90;;;;;;5062643;28;20035;-73
2023/08/14 12:22:25;;;;;;;8.18;1.90;;;23.60;95.00;;;;;;5065301;28;20421;-73
2023/08/14 12:24:52;;;;;;;3.35;1.23;;;23.50;94.70;;;;;;5052568;28;20094;-72
2023/08/14 12:27:28;;;;;;;3.40;1.20;;;23.50;95.10;;;;;;5051911;28;20036;-71
2023/08/14 12:29:55;;;;;;;4.88;1.27;;;23.50;95.20;;;;;;5051897;28;20028;-72
2023/08/14 12:32:23;;;;;;;4.95;1.40;;;23.50;95.00;;;;;;5066367;28;20047;-72
2023/08/14 12:34:49;;;;;;;4.47;1.33;;;23.50;95.10;;;;;;5072167;28;20017;-72
2023/08/14 12:37:15;;;;;;;3.90;1.40;;;23.60;95.00;;;;;;5052326;28;20017;-70
2023/08/14 12:39:47;;;;;;;4.75;1.10;;;23.50;95.10;;;;;;5053454;28;20087;-71
2023/08/14 12:42:13;;;;;;;4.32;1.48;;;23.60;95.10;;;;;;5056137;28;20028;-73
2023/08/14 12:44:39;;;;;;;5.93;1.95;;;23.50;95.10;;;;;;5056241;28;20105;-71
2023/08/14 12:47:05;;;;;;;5.07;1.52;;;23.50;95.00;;;;;;5057519;28;20017;-70